createdAt,value
2023-02-05T00:01:30.093Z,61.10
2023-02-05T00:03:57.191Z,61.90
2023-02-05T00:06:24.761Z,61.50
2023-02-05T00:08:51.832Z,61.90
2023-02-05T00:11:18.934Z,61.80
2023-02-05T00:13:45.997Z,61.90
2023-02-05T00:16:19.683Z,62.20
2023-02-05T00:18:47.692Z,62.40
2023-02-05T00:21:15.967Z,62.70
2023-02-05T00:23:43.156Z,62.80
2023-02-05T00:26:11.235Z,63.20
2023-02-05T00:28:38.781Z,63.40
2023-02-05T00:31:14.807Z,63.40
2023-02-05T00:33:42.583Z,63.70
2023-02-05T00:36:11.920Z,63.60
2023-02-05T00:38:41.916Z,63.70
2023-02-05T00:41:09.961Z,63.60
2023-02-05T00:43:37.199Z,63.20
2023-02-05T00:46:04.307Z,63.80
2023-02-05T00:48:31.412Z,63.80
2023-02-05T00:50:58.834Z,63.60
2023-02-05T00:53:26.800Z,64.10
2023-02-05T00:55:54.034Z,64.70
2023-02-05T00:58:21.669Z,65.00
2023-02-05T01:00:51.171Z,64.70
2023-02-05T01:03:20.651Z,64.30
2023-02-05T01:05:47.824Z,64.30
2023-02-05T01:08:15.319Z,64.00
2023-02-05T01:10:48.594Z,64.30
2023-02-05T01:13:17.952Z,64.50
2023-02-05T01:15:45.733Z,63.90
2023-02-05T01:18:12.811Z,64.30
2023-02-05T01:20:41.057Z,64.90
2023-02-05T01:23:08.158Z,65.10
2023-02-05T01:25:35.694Z,65.10
2023-02-05T01:28:03.450Z,65.50
2023-02-05T01:30:30.780Z,65.00
2023-02-05T01:32:57.897Z,65.50
2023-02-05T01:35:25.046Z,65.40
2023-02-05T01:37:52.165Z,65.50
2023-02-05T01:40:19.976Z,65.70
2023-02-05T01:42:47.202Z,66.20
2023-02-05T01:45:23.573Z,66.10
2023-02-05T01:47:52.003Z,66.70
2023-02-05T01:50:26.771Z,66.60
2023-02-05T01:52:55.416Z,66.80
2023-02-05T01:55:22.579Z,66.60
2023-02-05T01:57:51.737Z,66.50
2023-02-05T02:00:18.868Z,66.60
2023-02-05T02:02:46.522Z,66.70
2023-02-05T02:05:16.030Z,66.70
2023-02-05T02:07:43.379Z,66.80
2023-02-05T02:10:13.390Z,66.90
2023-02-05T02:12:42.709Z,66.90
2023-02-05T02:15:14.988Z,67.40
2023-02-05T02:17:45.668Z,67.60
2023-02-05T02:20:16.703Z,67.60
2023-02-05T02:22:52.588Z,67.80
2023-02-05T02:25:38.458Z,67.70
2023-02-05T02:28:31.739Z,67.80
2023-02-05T02:31:27.476Z,67.60
2023-02-05T02:34:12.072Z,67.50
2023-02-05T02:36:44.914Z,67.00
2023-02-05T02:39:26.296Z,67.20
2023-02-05T02:42:00.716Z,67.20
2023-02-05T02:44:35.296Z,67.70
2023-02-05T02:47:17.893Z,68.00
2023-02-05T02:49:59.718Z,68.20
2023-02-05T02:52:30.002Z,68.60
2023-02-05T02:55:00.889Z,69.20
2023-02-05T02:57:29.364Z,68.70
2023-02-05T03:00:01.058Z,68.80
2023-02-05T03:02:33.184Z,68.80
2023-02-05T03:05:05.080Z,69.20
2023-02-05T03:07:41.810Z,69.30
2023-02-05T03:10:20.629Z,69.00
2023-02-05T03:12:48.242Z,69.30
2023-02-05T03:15:15.659Z,69.70
2023-02-05T03:17:43.558Z,69.80
2023-02-05T03:20:25.651Z,70.10
2023-02-05T03:22:53.786Z,69.80
2023-02-05T03:25:23.424Z,69.80
2023-02-05T03:27:54.312Z,69.80
2023-02-05T03:30:22.052Z,69.70
2023-02-05T03:33:26.087Z,69.60
2023-02-05T03:36:26.393Z,70.10
2023-02-05T03:39:25.899Z,70.00
2023-02-05T03:42:01.934Z,70.10
2023-02-05T03:44:47.460Z,70.50
2023-02-05T03:47:28.138Z,70.00
2023-02-05T03:50:03.686Z,69.90
2023-02-05T03:52:38.291Z,69.80
2023-02-05T03:55:11.085Z,70.30
2023-02-05T03:57:58.855Z,70.40
2023-02-05T04:00:27.349Z,70.60
2023-02-05T04:02:55.033Z,70.60
2023-02-05T04:05:23.189Z,71.00
2023-02-05T04:07:51.622Z,71.00
2023-02-05T04:10:19.870Z,71.10
2023-02-05T04:12:47.080Z,71.40
2023-02-05T04:15:14.381Z,71.00
2023-02-05T04:17:41.468Z,70.90
2023-02-05T04:20:09.293Z,71.10
2023-02-05T04:22:36.519Z,70.80
2023-02-05T04:25:03.613Z,70.80
2023-02-05T04:27:30.645Z,71.00
2023-02-05T04:29:57.688Z,70.90
2023-02-05T04:32:26.333Z,71.30
2023-02-05T04:34:53.565Z,71.30
2023-02-05T04:37:20.664Z,70.70
2023-02-05T04:39:47.883Z,70.60
2023-02-05T04:42:14.894Z,71.50
2023-02-05T04:44:41.951Z,71.60
2023-02-05T04:47:09.110Z,72.30
2023-02-05T04:49:36.272Z,71.90
2023-02-05T04:52:03.557Z,71.50
2023-02-05T04:54:31.837Z,71.90
2023-02-05T04:56:58.944Z,71.80
2023-02-05T04:59:26.502Z,72.50
2023-02-05T05:01:53.613Z,72.50
2023-02-05T05:04:20.727Z,72.60
2023-02-05T05:06:47.844Z,72.50
2023-02-05T05:09:14.912Z,72.80
2023-02-05T05:11:42.212Z,73.10
2023-02-05T05:14:09.268Z,73.20
2023-02-05T05:16:36.350Z,73.40
2023-02-05T05:19:03.473Z,72.80
2023-02-05T05:21:30.579Z,71.80
2023-02-05T05:23:57.628Z,72.50
2023-02-05T05:26:24.772Z,72.60
2023-02-05T05:28:55.823Z,72.80
2023-02-05T05:31:23.882Z,72.60
2023-02-05T05:33:51.483Z,71.90
2023-02-05T05:36:19.268Z,72.30
2023-02-05T05:38:46.808Z,71.80
2023-02-05T05:41:40.990Z,71.30
2023-02-05T05:44:08.656Z,71.50
2023-02-05T05:46:36.568Z,71.50
2023-02-05T05:49:04.719Z,71.60
2023-02-05T05:51:32.842Z,72.30
2023-02-05T05:54:00.098Z,72.00
2023-02-05T05:56:27.238Z,72.20
2023-02-05T05:58:54.456Z,72.40
2023-02-05T06:01:23.066Z,72.40
2023-02-05T06:03:50.609Z,72.20
2023-02-05T06:06:17.709Z,72.10
2023-02-05T06:08:45.039Z,72.10
2023-02-05T06:11:12.187Z,72.30
2023-02-05T06:13:39.324Z,73.20
2023-02-05T06:16:06.793Z,72.60
2023-02-05T06:18:34.064Z,72.70
2023-02-05T06:21:02.356Z,73.00
2023-02-05T06:23:29.491Z,73.00
2023-02-05T06:25:56.654Z,73.00
2023-02-05T06:28:23.815Z,73.40
2023-02-05T06:30:51.043Z,74.10
2023-02-05T06:33:18.168Z,73.40
2023-02-05T06:35:45.161Z,73.20
2023-02-05T06:38:12.225Z,73.20
2023-02-05T06:40:39.315Z,73.50
2023-02-05T06:43:06.515Z,73.40
2023-02-05T06:45:33.816Z,73.10
2023-02-05T06:48:01.126Z,72.80
2023-02-05T06:50:28.314Z,72.60
2023-02-05T06:52:55.361Z,72.10
2023-02-05T06:55:22.509Z,72.30
2023-02-05T06:57:49.551Z,73.30
2023-02-05T07:00:17.415Z,72.90
2023-02-05T07:02:44.526Z,72.40
2023-02-05T07:05:11.659Z,72.20
2023-02-05T07:07:38.822Z,72.10
2023-02-05T07:10:06.068Z,72.00
2023-02-05T07:12:33.410Z,71.90
2023-02-05T07:15:00.519Z,72.50
2023-02-05T07:17:28.488Z,72.80
2023-02-05T07:19:55.766Z,73.00
2023-02-05T07:22:23.409Z,73.50
2023-02-05T07:24:50.835Z,72.10
2023-02-05T07:27:18.340Z,72.30
2023-02-05T07:29:45.338Z,72.10
2023-02-05T07:32:12.508Z,71.40
2023-02-05T07:34:39.936Z,71.20
2023-02-05T07:37:07.033Z,70.90
2023-02-05T07:39:34.225Z,69.00
2023-02-05T07:42:01.664Z,68.80
2023-02-05T07:44:28.910Z,68.90
2023-02-05T07:46:56.311Z,68.60
2023-02-05T07:49:23.479Z,67.00
2023-02-05T07:51:50.745Z,66.80
2023-02-05T07:54:17.724Z,67.50
2023-02-05T07:56:44.841Z,66.30
2023-02-05T07:59:11.938Z,66.20
2023-02-05T08:01:38.987Z,66.00
2023-02-05T08:04:06.299Z,65.70
2023-02-05T08:06:35.066Z,65.50
2023-02-05T08:09:02.485Z,64.90
2023-02-05T08:11:32.292Z,64.80
2023-02-05T08:14:00.769Z,64.40
2023-02-05T08:16:28.013Z,64.30
2023-02-05T08:18:56.497Z,65.00
2023-02-05T08:21:24.082Z,66.50
2023-02-05T08:23:51.475Z,69.60
2023-02-05T08:26:19.379Z,72.30
2023-02-05T08:28:46.621Z,74.40
2023-02-05T08:31:16.977Z,75.20
2023-02-05T08:33:45.916Z,79.10
2023-02-05T08:36:13.126Z,76.00
2023-02-05T08:38:40.182Z,74.40
2023-02-05T08:41:12.897Z,72.40
2023-02-05T08:43:45.430Z,71.90
2023-02-05T08:46:14.739Z,70.50
2023-02-05T08:48:42.263Z,69.10
2023-02-05T08:51:13.928Z,67.70
2023-02-05T08:53:41.580Z,67.50
2023-02-05T08:56:12.694Z,68.00
2023-02-05T08:58:40.181Z,68.10
2023-02-05T09:01:15.583Z,67.70
2023-02-05T09:03:43.719Z,67.30
2023-02-05T09:06:15.472Z,67.50
2023-02-05T09:08:42.940Z,68.20
2023-02-05T09:11:10.158Z,67.00
2023-02-05T09:13:38.376Z,70.20
2023-02-05T09:16:05.794Z,67.80
2023-02-05T09:18:32.832Z,70.00
2023-02-05T09:21:00.039Z,75.50
2023-02-05T09:23:27.233Z,74.90
2023-02-05T09:25:54.336Z,74.10
2023-02-05T09:28:21.531Z,76.70
2023-02-05T09:30:48.714Z,78.90
2023-02-05T09:33:15.901Z,83.20
2023-02-05T09:35:43.058Z,88.10
2023-02-05T09:38:14.543Z,86.90
2023-02-05T09:40:54.221Z,86.20
2023-02-05T09:43:36.935Z,86.10
2023-02-05T09:46:13.258Z,81.40
2023-02-05T09:49:01.432Z,81.70
2023-02-05T09:51:36.173Z,79.10
2023-02-05T09:54:26.321Z,80.00
2023-02-05T09:56:58.168Z,78.40
2023-02-05T09:59:27.627Z,75.60
2023-02-05T10:02:00.578Z,75.10
2023-02-05T10:04:28.492Z,73.60
2023-02-05T10:07:12.056Z,72.60
2023-02-05T10:10:02.711Z,72.60
2023-02-05T10:12:44.844Z,72.50
2023-02-05T10:15:42.658Z,72.20
2023-02-05T10:18:12.741Z,73.40
2023-02-05T10:21:05.280Z,71.20
2023-02-05T10:23:50.236Z,70.90
2023-02-05T10:26:20.838Z,70.10
2023-02-05T10:29:25.386Z,70.00
2023-02-05T10:32:07.772Z,70.00
2023-02-05T10:35:09.948Z,70.90
2023-02-05T10:37:51.641Z,69.60
2023-02-05T10:40:40.470Z,69.70
2023-02-05T10:43:25.795Z,68.40
2023-02-05T10:45:55.438Z,67.50
2023-02-05T10:48:56.837Z,66.90
2023-02-05T10:51:32.545Z,66.80
2023-02-05T10:54:00.734Z,68.50
2023-02-05T10:56:27.933Z,67.50
2023-02-05T10:58:57.319Z,66.80
2023-02-05T11:01:39.454Z,66.70
2023-02-05T11:04:16.052Z,66.90
2023-02-05T11:06:49.623Z,65.70
2023-02-05T11:09:26.496Z,66.60
2023-02-05T11:12:07.820Z,66.90
2023-02-05T11:14:38.634Z,68.00
2023-02-05T11:17:17.603Z,67.40
2023-02-05T11:20:19.901Z,67.10
2023-02-05T11:25:31.572Z,67.20
2023-02-05T11:28:05.812Z,63.20
2023-02-05T11:30:56.004Z,60.00
2023-02-05T11:33:22.650Z,60.30
2023-02-05T11:35:53.780Z,63.20
2023-02-05T11:38:32.488Z,64.40
2023-02-05T11:41:02.978Z,64.70
2023-02-05T11:43:36.236Z,66.50
2023-02-05T11:46:10.753Z,64.70
2023-02-05T11:48:40.695Z,65.50
2023-02-05T11:51:36.717Z,65.40
2023-02-05T11:54:30.024Z,65.20
2023-02-05T11:57:02.592Z,65.90
2023-02-05T11:59:29.727Z,66.50
2023-02-05T12:02:28.758Z,62.50
2023-02-05T12:05:21.342Z,63.70
2023-02-05T12:07:48.506Z,63.20
2023-02-05T12:10:38.258Z,63.90
2023-02-05T12:13:23.480Z,64.40
2023-02-05T12:16:41.724Z,62.90
2023-02-05T12:19:17.325Z,62.60
2023-02-05T12:22:00.134Z,73.50
2023-02-05T12:25:04.486Z,69.30
2023-02-05T12:28:22.734Z,62.90
2023-02-05T12:31:11.064Z,62.60
2023-02-05T12:33:45.178Z,63.40
2023-02-05T12:36:58.412Z,63.10
2023-02-05T12:39:53.877Z,61.60
2023-02-05T12:42:37.340Z,62.20
2023-02-05T12:45:04.461Z,60.10
2023-02-05T12:47:40.712Z,60.70
2023-02-05T12:50:11.006Z,60.60
2023-02-05T12:52:53.733Z,59.80
2023-02-05T12:55:45.536Z,59.60
2023-02-05T12:58:16.042Z,59.40
2023-02-05T13:00:54.772Z,59.80
2023-02-05T13:03:51.057Z,60.40
2023-02-05T13:06:30.032Z,58.30
2023-02-05T13:09:05.067Z,59.50
2023-02-05T13:11:41.440Z,59.80
2023-02-05T13:14:21.349Z,57.90
2023-02-05T13:17:00.369Z,56.40
2023-02-05T13:19:34.263Z,57.10
2023-02-05T13:22:46.190Z,57.50
2023-02-05T13:25:37.893Z,57.10
2023-02-05T13:28:41.778Z,56.20
2023-02-05T13:31:38.229Z,57.30
2023-02-05T13:34:07.726Z,55.60
2023-02-05T13:37:00.588Z,55.80
2023-02-05T13:39:56.929Z,56.40
2023-02-05T13:42:30.223Z,55.80
2023-02-05T13:45:19.545Z,56.90
2023-02-05T13:48:02.958Z,56.80
2023-02-05T13:50:39.055Z,57.80
2023-02-05T13:53:09.219Z,56.50
2023-02-05T13:56:13.218Z,57.30
2023-02-05T13:58:57.857Z,56.60
2023-02-05T14:01:29.921Z,56.50
2023-02-05T14:04:07.339Z,56.60
2023-02-05T14:06:40.348Z,56.40
2023-02-05T14:09:10.689Z,56.00
2023-02-05T14:12:00.002Z,56.10
2023-02-05T14:14:36.140Z,57.00
2023-02-05T14:17:29.116Z,61.60
2023-02-05T14:20:01.488Z,57.10
2023-02-05T14:22:44.428Z,59.20
2023-02-05T14:25:36.886Z,57.00
2023-02-05T14:28:16.495Z,57.70
2023-02-05T14:31:00.742Z,57.10
2023-02-05T14:33:36.208Z,59.00
2023-02-05T14:36:22.618Z,57.90
2023-02-05T14:38:57.322Z,58.10
2023-02-05T14:41:27.638Z,56.20
2023-02-05T14:44:00.738Z,58.10
2023-02-05T14:46:31.029Z,58.20
2023-02-05T14:49:00.812Z,57.30
2023-02-05T14:51:40.157Z,57.60
2023-02-05T14:54:17.101Z,57.50
2023-02-05T14:57:00.157Z,58.80
2023-02-05T14:59:35.174Z,56.90
2023-02-05T15:02:07.696Z,58.70
2023-02-05T15:04:57.688Z,57.10
2023-02-05T15:07:33.033Z,57.80
2023-02-05T15:10:06.175Z,57.60
2023-02-05T15:13:00.461Z,57.60
2023-02-05T15:15:35.577Z,57.80
2023-02-05T15:18:28.904Z,56.80
2023-02-05T15:20:58.698Z,57.00
2023-02-05T15:23:35.883Z,56.90
2023-02-05T15:26:15.703Z,57.00
2023-02-05T15:28:54.697Z,57.90
2023-02-05T15:31:27.643Z,57.50
2023-02-05T15:34:16.641Z,58.90
2023-02-05T15:36:53.715Z,58.50
2023-02-05T15:39:24.992Z,58.30
2023-02-05T15:41:56.140Z,58.80
2023-02-05T15:44:30.476Z,58.60
2023-02-05T15:47:08.139Z,59.60
2023-02-05T15:49:43.315Z,58.00
2023-02-05T15:52:19.353Z,58.10
2023-02-05T15:54:46.681Z,58.30
2023-02-05T15:57:39.787Z,58.00
2023-02-05T16:00:10.337Z,58.00
2023-02-05T16:02:40.063Z,58.30
2023-02-05T16:05:19.977Z,58.40
2023-02-05T16:07:52.014Z,58.70
2023-02-05T16:10:23.116Z,58.90
2023-02-05T16:13:17.489Z,59.80
2023-02-05T16:16:10.105Z,60.20
2023-02-05T16:18:42.810Z,60.70
2023-02-05T16:21:23.284Z,60.90
2023-02-05T16:23:57.484Z,61.30
2023-02-05T16:26:40.163Z,61.60
2023-02-05T16:29:16.977Z,61.20
2023-02-05T16:31:58.916Z,60.30
2023-02-05T16:34:26.173Z,62.00
2023-02-05T16:36:53.620Z,60.70
2023-02-05T16:39:20.771Z,60.00
2023-02-05T16:42:07.883Z,61.70
2023-02-05T16:44:47.281Z,61.50
2023-02-05T16:47:19.893Z,60.30
2023-02-05T16:49:48.836Z,63.10
2023-02-05T16:52:36.196Z,60.30
2023-02-05T16:55:25.991Z,60.10
2023-02-05T16:57:56.064Z,60.30
2023-02-05T17:00:26.751Z,61.00
2023-02-05T17:02:58.161Z,60.80
2023-02-05T17:05:26.671Z,61.20
2023-02-05T17:08:06.132Z,61.40
2023-02-05T17:10:56.609Z,61.50
2023-02-05T17:13:30.219Z,61.50
2023-02-05T17:15:57.763Z,61.40
2023-02-05T17:18:28.137Z,61.90
2023-02-05T17:21:20.527Z,62.00
2023-02-05T17:23:51.772Z,63.30
2023-02-05T17:26:20.583Z,64.20
2023-02-05T17:29:00.110Z,64.80
2023-02-05T17:31:29.523Z,65.10
2023-02-05T17:33:59.140Z,66.30
2023-02-05T17:36:26.700Z,66.10
2023-02-05T17:38:53.891Z,66.30
2023-02-05T17:41:49.352Z,66.30
2023-02-05T17:44:17.776Z,66.50
2023-02-05T17:46:45.075Z,66.00
2023-02-05T17:49:12.282Z,66.40
2023-02-05T17:51:42.620Z,66.40
2023-02-05T17:54:15.847Z,66.40
2023-02-05T17:56:44.689Z,66.50
2023-02-05T17:59:14.316Z,66.50
2023-02-05T18:01:41.648Z,66.80
2023-02-05T18:04:08.744Z,66.90
2023-02-05T18:06:37.917Z,67.70
2023-02-05T18:09:06.034Z,67.40
2023-02-05T18:11:33.853Z,67.40
2023-02-05T18:14:01.016Z,68.00
2023-02-05T18:16:28.184Z,67.30
2023-02-05T18:18:55.270Z,67.50
2023-02-05T18:21:22.459Z,68.00
2023-02-05T18:23:50.599Z,67.60
2023-02-05T18:26:17.796Z,68.00
2023-02-05T18:28:46.806Z,68.10
2023-02-05T18:31:14.912Z,68.60
2023-02-05T18:33:42.513Z,68.80
2023-02-05T18:36:12.154Z,68.80
2023-02-05T18:38:40.583Z,68.60
2023-02-05T18:41:13.668Z,68.50
2023-02-05T18:43:41.625Z,68.30
2023-02-05T18:46:14.533Z,70.30
2023-02-05T18:48:42.136Z,68.80
2023-02-05T18:51:11.805Z,69.00
2023-02-05T18:53:40.322Z,69.50
2023-02-05T18:56:14.272Z,69.20
2023-02-05T18:58:42.622Z,69.20
2023-02-05T19:01:15.086Z,69.70
2023-02-05T19:03:43.443Z,70.70
2023-02-05T19:06:12.965Z,70.70
2023-02-05T19:08:40.853Z,70.40
2023-02-05T19:11:10.333Z,70.10
2023-02-05T19:13:37.508Z,69.60
2023-02-05T19:16:11.516Z,69.70
2023-02-05T19:18:40.004Z,70.40
2023-02-05T19:21:09.932Z,70.40
2023-02-05T19:23:38.322Z,70.60
2023-02-05T19:26:08.662Z,70.80
2023-02-05T19:28:36.948Z,71.60
2023-02-05T19:31:06.539Z,73.10
2023-02-05T19:33:34.238Z,71.60
2023-02-05T19:36:02.346Z,70.80
2023-02-05T19:38:30.209Z,70.60
2023-02-05T19:40:57.274Z,71.00
2023-02-05T19:43:24.434Z,71.50
2023-02-05T19:45:51.500Z,71.30
2023-02-05T19:48:18.589Z,71.20
2023-02-05T19:50:45.697Z,70.80
2023-02-05T19:53:12.848Z,71.30
2023-02-05T19:55:40.425Z,72.50
2023-02-05T19:58:07.958Z,72.10
2023-02-05T20:00:35.351Z,71.20
2023-02-05T20:03:02.684Z,72.10
2023-02-05T20:05:29.992Z,71.90
2023-02-05T20:07:57.069Z,72.80
2023-02-05T20:10:24.064Z,70.20
2023-02-05T20:12:51.172Z,70.70
2023-02-05T20:15:18.324Z,71.20
2023-02-05T20:17:45.480Z,71.70
2023-02-05T20:20:24.953Z,72.20
2023-02-05T20:22:55.444Z,70.70
2023-02-05T20:25:22.644Z,70.80
2023-02-05T20:27:49.764Z,70.70
2023-02-05T20:30:35.589Z,71.20
2023-02-05T20:33:03.074Z,71.10
2023-02-05T20:35:30.284Z,71.90
2023-02-05T20:37:57.405Z,71.30
2023-02-05T20:40:25.124Z,71.20
2023-02-05T20:42:52.476Z,71.30
2023-02-05T20:45:19.546Z,71.80
2023-02-05T20:47:46.574Z,71.60
2023-02-05T20:50:13.815Z,72.20
2023-02-05T20:52:40.920Z,73.10
2023-02-05T20:55:08.408Z,71.30
2023-02-05T20:57:35.780Z,73.30
2023-02-05T21:00:03.063Z,72.10
2023-02-05T21:02:30.329Z,72.80
2023-02-05T21:04:57.431Z,72.00
2023-02-05T21:07:29.823Z,71.60
2023-02-05T21:09:59.229Z,71.40
2023-02-05T21:12:40.418Z,71.90
2023-02-05T21:15:07.938Z,72.80
2023-02-05T21:17:35.156Z,71.10
2023-02-05T21:20:03.953Z,70.90
2023-02-05T21:22:31.790Z,72.50
2023-02-05T21:24:59.036Z,70.70
2023-02-05T21:27:27.422Z,70.90
2023-02-05T21:29:54.529Z,73.40
2023-02-05T21:32:21.628Z,71.40
2023-02-05T21:34:48.720Z,71.30
2023-02-05T21:37:15.765Z,71.10
2023-02-05T21:39:44.327Z,72.90
2023-02-05T21:42:11.568Z,73.10
2023-02-05T21:44:44.530Z,72.20
2023-02-05T21:47:11.579Z,72.50
2023-02-05T21:49:38.633Z,73.80
2023-02-05T21:52:05.661Z,73.10
2023-02-05T21:54:32.799Z,71.60
2023-02-05T21:56:59.979Z,73.10
2023-02-05T21:59:27.174Z,72.20
2023-02-05T22:01:54.314Z,72.90
2023-02-05T22:04:21.443Z,73.60
2023-02-05T22:06:48.571Z,74.60
2023-02-05T22:09:16.996Z,73.60
2023-02-05T22:11:45.087Z,73.90
2023-02-05T22:14:12.192Z,73.00
2023-02-05T22:16:39.572Z,73.20
2023-02-05T22:19:07.632Z,73.70
2023-02-05T22:21:42.479Z,73.80
2023-02-05T22:24:15.094Z,74.30
2023-02-05T22:26:43.200Z,74.50
2023-02-05T22:29:16.800Z,74.80
2023-02-05T22:31:44.970Z,74.70
2023-02-05T22:34:12.628Z,74.60
2023-02-05T22:36:39.722Z,75.30
2023-02-05T22:39:07.320Z,74.90
2023-02-05T22:41:37.253Z,74.70
2023-02-05T22:44:05.899Z,75.00
2023-02-05T22:46:35.884Z,76.50
2023-02-05T22:49:03.740Z,75.60
2023-02-05T22:51:37.312Z,76.70
2023-02-05T22:54:05.615Z,76.00
2023-02-05T22:56:33.048Z,75.70
2023-02-05T22:59:02.974Z,76.60
2023-02-05T23:01:33.439Z,76.30
2023-02-05T23:04:03.349Z,77.10
2023-02-05T23:06:36.292Z,78.30
2023-02-05T23:09:07.514Z,75.70
2023-02-05T23:11:35.523Z,77.90
2023-02-05T23:14:04.495Z,74.50
2023-02-05T23:16:35.665Z,75.10
2023-02-05T23:19:05.934Z,74.00
2023-02-05T23:21:34.757Z,74.60
2023-02-05T23:24:01.951Z,75.40
2023-02-05T23:26:32.431Z,76.40
2023-02-05T23:29:00.166Z,75.30
2023-02-05T23:31:27.812Z,75.70
2023-02-05T23:33:55.390Z,75.60
2023-02-05T23:36:22.563Z,76.40
2023-02-05T23:38:50.398Z,76.70
2023-02-05T23:41:36.298Z,75.90
2023-02-05T23:44:20.048Z,75.80
2023-02-05T23:46:48.977Z,75.70
2023-02-05T23:49:17.203Z,74.90
2023-02-05T23:51:45.088Z,75.80
2023-02-05T23:54:12.676Z,75.70
2023-02-05T23:56:40.529Z,76.10
2023-02-05T23:59:09.145Z,76.90
